Time;durP1;ratioP1;P1;durP2;ratioP2;P2;SDS_P1;SDS_P2;PMS_P1;PMS_P2;Temp;Humidity;BMP_temperature;BMP_pressure;BME280_temperature;BME280_humidity;BME280_pressure;Samples;Min_cycle;Max_cycle;Signal;HPM_P1;HPM_P2
2023/10/20 00:00:20;;;;;;;8.95;8.15;;;15.20;99.90;;;;;;5039790;28;20073;-81
2023/10/20 00:02:46;;;;;;;8.38;7.60;;;15.30;99.90;;;;;;5039759;28;20045;-81
2023/10/20 00:05:15;;;;;;;9.85;8.95;;;15.20;99.90;;;;;;5037971;28;20064;-81
2023/10/20 00:07:41;;;;;;;10.05;8.98;;;15.30;99.90;;;;;;5035541;28;20021;-81
2023/10/20 00:10:09;;;;;;;13.60;9.38;;;15.20;99.90;;;;;;5035564;28;20536;-81
2023/10/20 00:12:35;;;;;;;10.18;9.18;;;15.20;99.90;;;;;;5054654;27;20015;-81
2023/10/20 00:15:01;;;;;;;11.07;9.98;;;15.20;99.90;;;;;;5037197;28;20029;-82
2023/10/20 00:17:27;;;;;;;9.98;8.98;;;15.20;99.90;;;;;;5033289;28;20362;-82
2023/10/20 00:19:53;;;;;;;11.18;10.00;;;15.30;99.90;;;;;;5037491;28;20033;-82
2023/10/20 00:22:19;;;;;;;14.40;10.98;;;15.20;99.90;;;;;;5039327;28;20021;-82
2023/10/20 00:24:45;;;;;;;11.27;10.10;;;15.20;99.90;;;;;;5035472;28;20044;-81
2023/10/20 00:27:13;;;;;;;10.50;9.43;;;15.20;99.90;;;;;;5039815;28;20022;-81
2023/10/20 00:29:42;;;;;;;12.35;9.68;;;15.20;99.90;;;;;;5033644;28;20018;-82
2023/10/20 00:32:08;;;;;;;10.43;9.45;;;15.20;99.90;;;;;;5038994;28;20143;-82
2023/10/20 00:34:36;;;;;;;12.13;10.93;;;15.20;99.90;;;;;;5040014;28;20053;-82
2023/10/20 00:37:03;;;;;;;13.40;10.18;;;15.20;99.90;;;;;;5040308;28;20049;-82
2023/10/20 00:39:30;;;;;;;13.13;11.07;;;15.20;99.90;;;;;;5037658;28;20029;-81
2023/10/20 00:41:56;;;;;;;10.38;9.35;;;15.20;99.90;;;;;;5038850;28;20033;-81
2023/10/20 00:44:22;;;;;;;9.52;8.63;;;15.20;99.90;;;;;;5062296;28;20393;-81
2023/10/20 00:46:48;;;;;;;10.45;9.45;;;15.20;99.90;;;;;;5036887;28;20021;-81
2023/10/20 00:49:14;;;;;;;12.77;9.98;;;15.20;99.90;;;;;;5033388;28;20515;-82
2023/10/20 00:51:43;;;;;;;11.32;10.23;;;15.20;99.90;;;;;;5035290;28;20050;-82
2023/10/20 00:54:13;;;;;;;9.60;8.77;;;15.20;99.90;;;;;;5036289;28;20021;-82
2023/10/20 00:56:41;;;;;;;10.02;9.07;;;15.20;99.90;;;;;;5040302;27;20515;-82
2023/10/20 00:59:08;;;;;;;12.00;10.75;;;15.20;99.90;;;;;;5038957;28;20029;-82
2023/10/20 01:01:38;;;;;;;13.40;11.45;;;15.20;99.90;;;;;;5038524;28;20021;-81
2023/10/20 01:04:05;;;;;;;14.02;12.23;;;15.20;99.90;;;;;;5036949;28;20432;-82
2023/10/20 01:06:31;;;;;;;11.57;10.48;;;15.20;99.90;;;;;;5036213;28;20021;-81
2023/10/20 01:08:58;;;;;;;12.20;11.00;;;15.20;99.90;;;;;;5036125;28;20025;-82
2023/10/20 01:11:24;;;;;;;12.98;11.68;;;15.20;99.90;;;;;;5036532;28;20022;-82
2023/10/20 01:13:50;;;;;;;14.88;12.32;;;15.20;99.90;;;;;;5043760;28;20126;-82
2023/10/20 01:16:19;;;;;;;13.63;12.23;;;15.20;99.90;;;;;;5036126;28;20021;-82
2023/10/20 01:18:44;;;;;;;14.23;12.13;;;15.20;99.90;;;;;;5032894;28;20057;-82
2023/10/20 01:21:10;;;;;;;11.88;10.63;;;15.10;99.90;;;;;;5038179;28;20114;-82
2023/10/20 01:23:37;;;;;;;12.27;10.93;;;15.20;99.90;;;;;;5041053;28;20025;-82
2023/10/20 01:26:03;;;;;;;12.43;11.13;;;15.20;99.90;;;;;;5039427;28;20070;-82
2023/10/20 01:28:29;;;;;;;12.85;11.55;;;15.20;99.90;;;;;;5040392;28;20026;-82
2023/10/20 01:30:57;;;;;;;12.90;11.13;;;15.20;99.90;;;;;;5041503;28;20519;-81
2023/10/20 01:33:22;;;;;;;10.98;9.88;;;15.20;99.90;;;;;;5042098;28;20507;-82
2023/10/20 01:35:48;;;;;;;10.45;9.40;;;15.20;99.90;;;;;;5039682;28;20049;-82
2023/10/20 01:38:14;;;;;;;10.75;9.60;;;15.30;99.90;;;;;;5042918;28;20033;-81
2023/10/20 01:40:39;;;;;;;9.98;9.10;;;15.30;99.90;;;;;;5042745;28;20028;-81
2023/10/20 01:43:05;;;;;;;11.85;10.63;;;15.30;99.90;;;;;;5057343;27;20116;-81
2023/10/20 01:45:31;;;;;;;12.75;11.43;;;15.40;99.90;;;;;;5041874;28;20029;-82
2023/10/20 01:47:56;;;;;;;13.95;11.02;;;15.30;99.90;;;;;;5039645;28;20393;-81
2023/10/20 01:50:24;;;;;;;14.73;12.20;;;15.30;99.90;;;;;;5038850;28;20025;-82
2023/10/20 01:52:49;;;;;;;14.52;11.50;;;15.30;99.90;;;;;;5044782;28;20552;-82
2023/10/20 01:55:15;;;;;;;12.57;11.27;;;15.30;99.90;;;;;;5040674;28;20021;-81
2023/10/20 01:57:41;;;;;;;11.88;10.02;;;15.30;99.90;;;;;;5038302;28;20029;-81
2023/10/20 02:00:13;;;;;;;13.63;12.02;;;15.30;99.90;;;;;;5039028;28;20022;-80
2023/10/20 02:02:39;;;;;;;;;;;15.30;99.90;;;;;;5038000;28;20028;-82
2023/10/20 02:05:08;;;;;;;12.55;11.25;;;15.30;99.90;;;;;;5038563;28;20272;-81
2023/10/20 02:07:34;;;;;;;11.63;10.52;;;15.30;99.90;;;;;;5042738;28;20017;-81
2023/10/20 02:09:59;;;;;;;14.45;12.15;;;15.30;99.90;;;;;;5042096;28;20495;-81
2023/10/20 02:12:25;;;;;;;15.52;11.93;;;15.30;99.90;;;;;;5052181;27;20028;-81
2023/10/20 02:14:51;;;;;;;12.02;10.57;;;15.30;99.90;;;;;;5036854;28;20024;-81
2023/10/20 02:17:17;;;;;;;12.43;11.25;;;15.20;99.90;;;;;;5037193;28;20026;-81
2023/10/20 02:19:42;;;;;;;16.58;11.13;;;15.20;99.90;;;;;;5041667;28;20068;-82
2023/10/20 02:22:08;;;;;;;13.20;10.80;;;15.30;99.90;;;;;;5042765;28;20032;-81
2023/10/20 02:24:34;;;;;;;14.50;11.50;;;15.30;99.90;;;;;;5039857;28;20499;-81
2023/10/20 02:26:59;;;;;;;12.15;10.13;;;15.20;99.90;;;;;;5041000;28;20025;-81
2023/10/20 02:29:25;;;;;;;11.63;10.30;;;15.30;99.90;;;;;;5043054;28;20087;-81
2023/10/20 02:31:51;;;;;;;12.10;10.38;;;15.30;99.90;;;;;;5040175;28;20032;-81
2023/10/20 02:34:17;;;;;;;10.35;9.30;;;15.30;99.90;;;;;;5041777;28;20422;-81
2023/10/20 02:36:42;;;;;;;11.80;6.32;;;15.30;99.90;;;;;;5040374;28;20029;-81
2023/10/20 02:39:08;;;;;;;5.78;4.63;;;15.40;99.90;;;;;;5034731;28;20054;-82
2023/10/20 02:41:34;;;;;;;6.13;5.53;;;15.40;99.90;;;;;;5041814;28;20396;-82
2023/10/20 02:44:00;;;;;;;7.75;5.38;;;15.50;99.90;;;;;;5041177;28;20414;-81
2023/10/20 02:46:26;;;;;;;6.97;6.30;;;15.50;99.90;;;;;;5041246;28;20088;-81
2023/10/20 02:48:51;;;;;;;8.48;6.72;;;15.50;99.90;;;;;;5040405;28;20546;-81
2023/10/20 02:51:17;;;;;;;8.68;7.68;;;15.60;99.90;;;;;;5044710;28;20025;-82
2023/10/20 02:53:43;;;;;;;8.30;6.55;;;15.60;99.90;;;;;;5042808;28;20369;-81
2023/10/20 02:56:13;;;;;;;8.10;6.57;;;15.60;99.90;;;;;;5053218;28;20404;-81
2023/10/20 02:58:40;;;;;;;9.70;5.15;;;15.50;99.90;;;;;;5037778;28;20399;-81
2023/10/20 03:01:07;;;;;;;7.82;5.18;;;15.60;99.90;;;;;;5035762;28;20124;-82
2023/10/20 03:03:33;;;;;;;5.45;4.15;;;15.70;99.90;;;;;;5038260;28;20388;-81
2023/10/20 03:06:01;;;;;;;8.20;4.05;;;15.80;99.90;;;;;;5040308;28;20036;-81
2023/10/20 03:08:28;;;;;;;9.45;4.00;;;15.90;99.90;;;;;;5037813;28;20045;-81
2023/10/20 03:10:56;;;;;;;9.75;3.75;;;15.90;99.90;;;;;;5037569;28;20014;-82
2023/10/20 03:13:26;;;;;;;10.27;4.15;;;15.90;99.90;;;;;;5041496;28;20506;-81
2023/10/20 03:15:52;;;;;;;11.48;4.18;;;16.00;99.90;;;;;;5039394;28;20033;-81
2023/10/20 03:18:19;;;;;;;7.60;4.00;;;16.00;99.90;;;;;;5042380;28;20052;-81
2023/10/20 03:20:48;;;;;;;6.35;3.95;;;16.10;99.90;;;;;;5040898;28;20662;-82
2023/10/20 03:23:15;;;;;;;12.73;4.28;;;16.10;99.90;;;;;;5034112;28;20070;-81
2023/10/20 03:25:42;;;;;;;6.30;3.80;;;16.10;99.90;;;;;;5034297;28;20485;-82
2023/10/20 03:28:08;;;;;;;8.52;4.18;;;16.10;99.90;;;;;;5040594;28;20029;-81
2023/10/20 03:30:45;;;;;;;8.02;3.60;;;16.20;99.90;;;;;;5038179;28;20025;-81
2023/10/20 03:33:13;;;;;;;12.25;3.72;;;16.20;99.90;;;;;;5039659;28;20532;-80
2023/10/20 03:35:45;;;;;;;10.98;4.05;;;16.20;99.90;;;;;;5041483;28;20045;-81
2023/10/20 03:38:11;;;;;;;13.07;4.22;;;16.30;99.90;;;;;;5034960;28;20022;-80
2023/10/20 03:40:41;;;;;;;7.28;3.97;;;16.30;99.90;;;;;;5039756;28;20032;-81
2023/10/20 03:43:08;;;;;;;10.60;4.28;;;16.30;99.90;;;;;;5035627;28;20041;-80
2023/10/20 03:45:48;;;;;;;13.50;4.53;;;16.40;99.90;;;;;;5035950;28;20057;-80
2023/10/20 03:48:14;;;;;;;12.73;4.47;;;16.40;99.90;;;;;;5038376;28;20021;-80
2023/10/20 03:50:46;;;;;;;10.30;4.40;;;16.40;99.90;;;;;;5035852;28;20584;-80
2023/10/20 03:53:18;;;;;;;16.63;5.00;;;16.40;99.90;;;;;;5041416;28;20082;-80
2023/10/20 03:55:44;;;;;;;;;;;16.40;99.90;;;;;;5038267;28;20116;-80
2023/10/20 03:58:11;;;;;;;9.80;3.95;;;16.40;99.90;;;;;;5040714;28;19951;-81
2023/10/20 04:00:41;;;;;;;10.25;4.93;;;16.30;99.90;;;;;;5037878;28;20025;-80
2023/10/20 04:03:08;;;;;;;14.48;5.35;;;16.30;99.90;;;;;;5034897;28;20146;-81
2023/10/20 04:05:34;;;;;;;11.10;5.03;;;16.30;99.90;;;;;;5040395;28;20035;-81
2023/10/20 04:07:59;;;;;;;14.45;5.90;;;16.30;99.90;;;;;;5037503;28;20018;-80
2023/10/20 04:10:25;;;;;;;13.50;5.88;;;16.30;99.90;;;;;;5039644;28;20466;-80
2023/10/20 04:12:52;;;;;;;10.23;4.82;;;16.40;99.90;;;;;;5047157;28;20027;-81
2023/10/20 04:15:25;;;;;;;10.52;4.55;;;16.40;99.90;;;;;;5036158;28;20070;-80
2023/10/20 04:17:56;;;;;;;12.00;4.90;;;16.40;99.90;;;;;;5037220;28;20013;-80
2023/10/20 04:20:23;;;;;;;10.23;4.90;;;16.40;99.90;;;;;;5039292;28;20071;-81
2023/10/20 04:22:49;;;;;;;9.82;4.75;;;16.40;99.90;;;;;;5037401;28;20507;-81
2023/10/20 04:25:20;;;;;;;13.68;5.63;;;16.40;99.90;;;;;;5040331;28;20077;-81
2023/10/20 04:28:32;;;;;;;14.02;5.68;;;16.50;99.90;;;;;;5038327;28;20097;-81
2023/10/20 05:02:57;;;;;;;18.05;5.60;;;16.60;99.90;;;;;;5033734;28;20030;-82
2023/10/20 05:10:37;;;;;;;12.65;4.80;;;16.60;99.90;;;;;;5039490;28;20025;-82
2023/10/20 05:13:03;;;;;;;15.02;5.90;;;16.60;99.90;;;;;;5041510;28;20497;-82
2023/10/20 05:15:32;;;;;;;12.80;5.68;;;16.60;99.90;;;;;;5039616;28;20021;-83
2023/10/20 05:17:58;;;;;;;11.85;5.05;;;16.60;99.90;;;;;;5043345;28;20025;-82
2023/10/20 05:20:24;;;;;;;15.52;5.80;;;16.60;99.90;;;;;;5041700;28;20027;-83
2023/10/20 05:22:50;;;;;;;13.55;6.07;;;16.70;99.90;;;;;;5040957;28;20021;-81
2023/10/20 05:25:18;;;;;;;15.27;5.78;;;16.70;99.90;;;;;;5044234;28;20039;-82
2023/10/20 05:27:45;;;;;;;12.07;4.78;;;16.70;99.90;;;;;;5038223;28;20026;-81
2023/10/20 05:30:10;;;;;;;11.85;5.20;;;16.80;99.90;;;;;;5038810;28;20120;-81
2023/10/20 05:32:39;;;;;;;12.48;5.40;;;16.70;99.90;;;;;;5041463;28;20105;-81
2023/10/20 05:35:08;;;;;;;11.07;5.38;;;16.80;99.90;;;;;;5039325;28;20046;-81
2023/10/20 05:37:34;;;;;;;20.00;5.82;;;16.80;99.90;;;;;;5040859;28;20027;-82
2023/10/20 05:40:00;;;;;;;11.70;5.40;;;16.80;99.90;;;;;;5042939;28;20108;-81
2023/10/20 05:42:29;;;;;;;9.77;5.05;;;16.90;99.90;;;;;;5052029;27;20051;-82
2023/10/20 05:45:10;;;;;;;14.65;5.85;;;16.90;99.90;;;;;;5040142;28;20116;-81
2023/10/20 05:47:38;;;;;;;15.15;6.25;;;16.80;99.90;;;;;;5038103;28;20036;-82
2023/10/20 05:50:04;;;;;;;15.50;6.28;;;16.80;99.90;;;;;;5042447;28;20035;-81
2023/10/20 05:52:30;;;;;;;14.25;6.05;;;16.70;99.90;;;;;;5038531;28;20026;-82
2023/10/20 05:54:59;;;;;;;9.93;5.38;;;16.70;99.90;;;;;;5039439;28;20469;-81
2023/10/20 05:57:29;;;;;;;13.10;5.57;;;16.80;99.90;;;;;;5042161;28;20022;-82
2023/10/20 05:59:54;;;;;;;12.27;5.45;;;16.80;99.90;;;;;;5039062;28;20396;-80
2023/10/20 06:02:21;;;;;;;9.75;4.82;;;16.80;99.90;;;;;;5040116;28;20029;-82
2023/10/20 06:04:46;;;;;;;15.00;6.00;;;16.90;99.90;;;;;;5036589;28;20101;-82
2023/10/20 06:07:12;;;;;;;10.68;5.53;;;16.90;99.90;;;;;;5037931;28;20029;-82
2023/10/20 06:09:39;;;;;;;9.60;5.60;;;16.90;99.90;;;;;;5040220;28;20077;-82
2023/10/20 06:12:07;;;;;;;14.32;5.47;;;17.00;99.90;;;;;;5042132;27;20021;-82
2023/10/20 06:14:36;;;;;;;14.02;5.13;;;17.00;99.90;;;;;;5041322;28;20032;-81
2023/10/20 06:17:01;;;;;;;10.32;5.68;;;17.00;99.90;;;;;;5045387;28;20028;-82
2023/10/20 06:19:28;;;;;;;10.98;5.80;;;17.00;99.90;;;;;;5036919;28;20018;-81
2023/10/20 06:21:55;;;;;;;15.15;5.60;;;17.00;99.90;;;;;;5040188;28;20036;-82
2023/10/20 06:24:21;;;;;;;13.50;6.63;;;17.00;99.90;;;;;;5035664;28;20040;-83
2023/10/20 06:26:47;;;;;;;9.00;5.22;;;17.00;99.90;;;;;;5031936;27;20026;-82
2023/10/20 06:31:57;;;;;;;10.05;5.35;;;17.00;99.90;;;;;;5051820;28;20365;-82
2023/10/20 06:34:26;;;;;;;12.10;5.07;;;17.00;99.90;;;;;;5051632;28;20897;-81
2023/10/20 06:37:08;;;;;;;21.25;6.03;;;17.10;99.90;;;;;;5038073;28;20468;-81
2023/10/20 06:39:40;;;;;;;;;;;17.10;99.90;;;;;;5031058;28;20436;-81
2023/10/20 06:42:09;;;;;;;10.60;5.43;;;17.10;99.90;;;;;;5046092;28;19905;-81
2023/10/20 06:44:35;;;;;;;13.80;5.47;;;17.10;99.90;;;;;;5031460;28;20507;-81
2023/10/20 06:47:01;;;;;;;16.17;5.30;;;17.20;99.90;;;;;;5030254;28;20031;-81
2023/10/20 06:49:27;;;;;;;13.25;5.50;;;17.20;99.90;;;;;;5031590;28;20028;-82
2023/10/20 06:51:54;;;;;;;10.45;4.93;;;17.20;99.90;;;;;;5031547;28;20018;-81
2023/10/20 06:54:19;;;;;;;10.90;5.28;;;17.20;99.90;;;;;;5038001;28;20057;-82
2023/10/20 06:56:45;;;;;;;13.13;5.63;;;17.20;99.90;;;;;;5044031;28;20026;-82
2023/10/20 06:59:13;;;;;;;10.60;5.10;;;17.20;99.90;;;;;;5031132;28;20048;-83
2023/10/20 07:01:40;;;;;;;9.88;5.07;;;17.30;99.90;;;;;;5046591;28;20029;-82
2023/10/20 07:04:08;;;;;;;17.38;6.35;;;17.20;99.90;;;;;;5037951;28;20491;-81
2023/10/20 07:06:36;;;;;;;9.05;5.05;;;17.20;99.90;;;;;;5049716;28;20102;-81
2023/10/20 07:09:14;;;;;;;11.68;4.88;;;17.20;99.90;;;;;;5046889;28;20496;-82
2023/10/20 07:11:43;;;;;;;11.02;4.95;;;17.20;99.90;;;;;;5028258;28;20017;-81
2023/10/20 07:14:13;;;;;;;10.63;5.05;;;17.20;99.90;;;;;;5126682;27;20027;-82
2023/10/20 07:16:39;;;;;;;11.13;5.25;;;17.20;99.90;;;;;;5063520;27;20022;-81
2023/10/20 07:19:06;;;;;;;10.77;4.93;;;17.20;99.90;;;;;;5038087;28;20025;-82
2023/10/20 07:21:32;;;;;;;13.82;5.65;;;17.20;99.90;;;;;;5031501;28;20118;-82
2023/10/20 07:23:57;;;;;;;13.38;5.15;;;17.20;99.90;;;;;;5046065;28;20625;-82
2023/10/20 07:26:24;;;;;;;11.52;4.95;;;17.30;99.90;;;;;;5029780;28;20396;-82
2023/10/20 07:28:50;;;;;;;9.38;5.05;;;17.30;99.90;;;;;;5029802;28;20388;-82
2023/10/20 07:31:21;;;;;;;11.32;5.28;;;17.30;99.90;;;;;;5030770;28;20039;-80
2023/10/20 07:33:47;;;;;;;12.55;5.35;;;17.30;99.90;;;;;;5030931;28;20079;-82
2023/10/20 07:36:13;;;;;;;9.27;4.57;;;17.30;99.90;;;;;;5047750;28;20049;-82
2023/10/20 07:38:38;;;;;;;14.30;6.05;;;17.30;99.90;;;;;;5050739;28;20025;-82
2023/10/20 07:41:09;;;;;;;11.95;5.25;;;17.30;99.90;;;;;;5050384;28;20056;-82
2023/10/20 07:43:35;;;;;;;17.35;5.50;;;17.40;99.90;;;;;;5035447;28;20029;-81
2023/10/20 07:46:02;;;;;;;12.35;5.00;;;17.40;99.90;;;;;;5039712;28;20036;-82
2023/10/20 07:48:28;;;;;;;12.63;5.07;;;17.50;99.90;;;;;;5046112;28;20384;-82
2023/10/20 07:50:59;;;;;;;13.82;5.43;;;17.50;99.90;;;;;;5048140;28;20021;-82
2023/10/20 07:53:25;;;;;;;13.05;4.97;;;17.50;99.90;;;;;;5050385;28;20049;-81
2023/10/20 07:55:51;;;;;;;13.05;4.60;;;17.60;99.90;;;;;;5043367;28;20021;-80
2023/10/20 07:58:16;;;;;;;12.23;4.38;;;17.80;99.90;;;;;;5030278;28;20369;-81
2023/10/20 08:00:45;;;;;;;15.75;5.13;;;17.80;99.90;;;;;;5030157;28;20101;-82
2023/10/20 08:03:11;;;;;;;9.32;4.53;;;17.70;99.90;;;;;;5030202;28;20021;-81
2023/10/20 08:05:37;;;;;;;12.40;5.00;;;17.70;99.90;;;;;;5036635;28;20086;-82
2023/10/20 08:08:04;;;;;;;13.30;4.03;;;17.70;99.90;;;;;;5032823;28;20025;-82
2023/10/20 08:10:33;;;;;;;12.38;5.78;;;17.70;99.90;;;;;;5048580;28;20025;-82
2023/10/20 08:12:59;;;;;;;10.38;5.10;;;17.70;99.90;;;;;;5066319;27;20023;-82
2023/10/20 08:15:27;;;;;;;15.80;5.20;;;17.70;99.90;;;;;;5133944;27;20076;-81
2023/10/20 08:17:54;;;;;;;14.57;5.55;;;17.70;99.90;;;;;;5103259;27;20029;-82
2023/10/20 08:20:20;;;;;;;15.27;4.20;;;17.80;99.90;;;;;;5030133;28;20036;-82
2023/10/20 08:22:45;;;;;;;12.32;5.05;;;17.80;99.90;;;;;;5037806;28;20021;-81
2023/10/20 08:25:11;;;;;;;14.18;5.15;;;17.80;99.90;;;;;;5037237;28;20048;-82
2023/10/20 08:27:37;;;;;;;18.90;6.15;;;17.90;99.90;;;;;;5031914;28;20144;-81
2023/10/20 08:30:04;;;;;;;18.83;5.75;;;17.90;99.90;;;;;;5014528;28;20108;-82
2023/10/20 08:32:32;;;;;;;20.88;5.30;;;18.00;99.90;;;;;;5037428;28;20021;-81
2023/10/20 08:34:58;;;;;;;16.02;5.00;;;18.20;99.90;;;;;;5028718;28;20081;-81
2023/10/20 08:37:25;;;;;;;16.60;5.47;;;18.30;99.90;;;;;;5030833;28;20033;-81
2023/10/20 08:39:50;;;;;;;17.90;6.10;;;18.30;99.90;;;;;;5037297;28;20033;-75
2023/10/20 08:42:17;;;;;;;12.68;5.05;;;18.30;99.90;;;;;;5050869;28;20071;-75
2023/10/20 08:44:43;;;;;;;15.32;5.75;;;18.30;99.90;;;;;;5032232;28;20040;-75
2023/10/20 08:47:15;;;;;;;10.73;5.05;;;18.30;99.90;;;;;;5037896;28;20164;-75
2023/10/20 08:49:41;;;;;;;14.23;5.78;;;18.30;99.90;;;;;;5038863;28;20063;-75
2023/10/20 08:52:10;;;;;;;16.00;5.57;;;18.30;99.90;;;;;;5036627;28;20029;-75
2023/10/20 08:54:36;;;;;;;16.20;5.70;;;18.20;99.90;;;;;;5038862;28;20026;-75
2023/10/20 08:57:03;;;;;;;14.05;4.60;;;18.10;99.90;;;;;;5038454;28;20026;-75
2023/10/20 08:59:29;;;;;;;19.92;5.57;;;18.10;99.90;;;;;;5035342;28;20025;-75
2023/10/20 09:01:56;;;;;;;16.58;5.35;;;18.10;99.90;;;;;;5036752;28;20029;-75
2023/10/20 09:04:26;;;;;;;22.25;5.70;;;18.00;99.90;;;;;;5038129;28;20044;-75
2023/10/20 09:06:52;;;;;;;12.38;6.10;;;18.00;99.90;;;;;;5037201;28;20029;-75
2023/10/20 09:09:21;;;;;;;16.23;5.60;;;18.00;99.90;;;;;;5036792;28;20064;-74
2023/10/20 09:11:48;;;;;;;13.75;5.95;;;18.20;99.90;;;;;;5033195;28;20244;-75
2023/10/20 09:14:14;;;;;;;16.65;6.72;;;18.20;99.90;;;;;;5038707;28;20106;-75
2023/10/20 09:16:42;;;;;;;13.35;5.07;;;18.20;99.90;;;;;;5037458;28;20089;-75
2023/10/20 09:19:11;;;;;;;19.17;5.78;;;18.20;99.90;;;;;;5038520;28;20025;-75
2023/10/20 09:21:44;;;;;;;19.13;5.65;;;18.10;99.90;;;;;;5020894;28;20392;-75
2023/10/20 09:24:11;;;;;;;21.88;5.88;;;18.20;99.90;;;;;;5037111;28;20395;-75
2023/10/20 09:26:39;;;;;;;14.07;5.80;;;18.20;99.90;;;;;;5038325;28;20035;-75
2023/10/20 09:29:06;;;;;;;20.67;6.82;;;18.20;99.90;;;;;;5036603;28;20018;-75
2023/10/20 09:31:32;;;;;;;29.75;8.20;;;18.20;99.90;;;;;;5035497;28;20018;-74
2023/10/20 09:33:59;;;;;;;15.80;6.82;;;18.20;99.90;;;;;;5037148;28;20059;-75
2023/10/20 09:36:25;;;;;;;25.80;7.38;;;18.20;99.90;;;;;;5039141;28;20053;-75
2023/10/20 09:38:53;;;;;;;17.88;5.78;;;18.10;99.90;;;;;;5035570;28;20017;-75
2023/10/20 09:41:25;;;;;;;22.35;6.70;;;18.10;99.90;;;;;;5040626;28;20116;-75
2023/10/20 09:44:00;;;;;;;17.52;7.05;;;18.10;99.90;;;;;;5042756;27;20485;-75
2023/10/20 09:46:39;;;;;;;18.30;6.88;;;18.10;99.90;;;;;;5035683;28;20042;-75
2023/10/20 09:49:15;;;;;;;22.00;6.20;;;18.10;99.90;;;;;;5035969;28;20108;-75
2023/10/20 09:51:45;;;;;;;21.08;7.10;;;18.10;99.90;;;;;;5040442;28;20026;-75
2023/10/20 09:54:15;;;;;;;19.13;5.80;;;18.10;99.90;;;;;;5041429;28;20543;-75
2023/10/20 09:56:44;;;;;;;21.25;6.75;;;18.10;99.90;;;;;;5039235;28;20034;-75
2023/10/20 09:59:12;;;;;;;19.58;6.97;;;18.10;99.90;;;;;;5038812;28;20033;-75
2023/10/20 10:01:40;;;;;;;21.60;7.28;;;18.10;99.90;;;;;;5041268;28;20036;-75
2023/10/20 10:04:08;;;;;;;19.35;7.53;;;18.00;99.90;;;;;;5040103;28;20032;-75
2023/10/20 10:06:37;;;;;;;19.75;6.10;;;18.00;99.90;;;;;;5040660;28;20036;-76
2023/10/20 10:09:05;;;;;;;22.65;6.97;;;18.00;99.90;;;;;;5042329;28;20029;-75
2023/10/20 10:11:43;;;;;;;15.68;6.72;;;18.00;99.90;;;;;;5035927;28;20074;-75
2023/10/20 10:14:19;;;;;;;22.67;6.95;;;18.00;99.90;;;;;;5056498;27;20078;-75
2023/10/20 10:16:53;;;;;;;16.50;7.20;;;18.00;99.90;;;;;;5037522;28;20086;-75
2023/10/20 10:19:19;;;;;;;19.17;6.82;;;18.00;99.90;;;;;;5039184;28;20048;-75
2023/10/20 10:21:53;;;;;;;23.08;7.47;;;18.00;99.90;;;;;;5031643;28;20437;-75
2023/10/20 10:24:20;;;;;;;21.88;7.35;;;18.00;99.90;;;;;;5038991;28;20090;-75
2023/10/20 10:26:56;;;;;;;19.02;7.57;;;17.90;99.90;;;;;;5037264;28;20548;-75
2023/10/20 10:29:47;;;;;;;23.85;6.78;;;17.90;99.90;;;;;;5037526;28;20051;-75
2023/10/20 10:32:13;;;;;;;14.95;6.88;;;17.90;99.90;;;;;;5021450;28;20079;-75
2023/10/20 10:34:47;;;;;;;15.80;6.22;;;17.80;99.90;;;;;;5039174;28;20110;-75
2023/10/20 10:37:16;;;;;;;19.75;7.40;;;17.80;99.90;;;;;;5036623;28;20117;-75
2023/10/20 10:39:42;;;;;;;20.05;6.57;;;17.80;99.90;;;;;;5035892;28;20033;-75
2023/10/20 10:42:07;;;;;;;16.92;6.30;;;17.80;99.90;;;;;;5043000;27;20025;-75
2023/10/20 10:44:37;;;;;;;22.50;7.43;;;17.90;99.90;;;;;;5042934;28;20021;-75
2023/10/20 10:47:04;;;;;;;21.67;7.05;;;17.90;99.90;;;;;;5035057;28;20056;-75
2023/10/20 10:49:34;;;;;;;25.48;7.70;;;18.00;99.90;;;;;;5033108;28;20117;-75
2023/10/20 10:52:07;;;;;;;16.33;6.13;;;18.10;99.90;;;;;;5035150;28;20032;-75
2023/10/20 10:54:33;;;;;;;18.90;6.82;;;18.10;99.90;;;;;;5037610;28;20412;-75
2023/10/20 10:57:03;;;;;;;17.02;7.10;;;18.00;99.90;;;;;;5038926;28;20083;-76
2023/10/20 10:59:30;;;;;;;21.35;7.63;;;18.00;99.90;;;;;;5038238;28;20061;-75
2023/10/20 11:01:57;;;;;;;27.42;7.20;;;18.10;99.90;;;;;;5041189;28;20029;-75
2023/10/20 11:04:23;;;;;;;15.57;6.70;;;18.00;99.90;;;;;;5040017;28;20030;-75
2023/10/20 11:06:49;;;;;;;19.80;5.97;;;18.10;99.90;;;;;;5039245;28;20040;-75
2023/10/20 11:09:19;;;;;;;19.55;6.70;;;18.10;99.90;;;;;;5041572;28;20020;-75
2023/10/20 11:11:47;;;;;;;19.80;6.72;;;18.10;99.90;;;;;;5036446;28;20066;-75
2023/10/20 11:14:17;;;;;;;15.65;7.07;;;18.20;99.90;;;;;;5045044;27;20018;-76
2023/10/20 11:16:43;;;;;;;22.50;7.15;;;18.20;99.90;;;;;;5038294;28;20071;-75
2023/10/20 11:19:11;;;;;;;18.65;6.97;;;18.20;99.90;;;;;;5038342;28;20029;-76
2023/10/20 11:21:48;;;;;;;22.45;6.32;;;18.20;99.90;;;;;;5040017;28;20033;-75
2023/10/20 11:24:28;;;;;;;21.60;6.55;;;18.30;99.90;;;;;;5041305;28;20361;-75
2023/10/20 11:27:03;;;;;;;16.45;6.13;;;18.40;99.90;;;;;;5036828;28;20026;-75
2023/10/20 11:29:32;;;;;;;16.58;6.28;;;18.50;99.90;;;;;;5034424;28;20022;-76
2023/10/20 11:32:00;;;;;;;17.23;6.28;;;18.50;99.90;;;;;;5036312;28;20031;-75
2023/10/20 11:34:27;;;;;;;23.95;6.80;;;18.60;99.90;;;;;;5037159;28;20430;-75
2023/10/20 11:36:53;;;;;;;22.88;6.57;;;18.60;99.90;;;;;;5034549;28;20388;-76
2023/10/20 11:39:24;;;;;;;17.13;6.63;;;18.70;99.90;;;;;;5039729;28;20025;-76
2023/10/20 11:41:51;;;;;;;15.98;6.38;;;18.60;99.90;;;;;;5039469;28;20342;-76
2023/10/20 11:44:17;;;;;;;22.67;5.60;;;18.70;99.90;;;;;;5056026;27;20032;-76
2023/10/20 11:46:43;;;;;;;20.23;6.13;;;18.70;99.90;;;;;;5037942;28;20048;-75
2023/10/20 11:49:10;;;;;;;16.42;5.30;;;18.60;99.90;;;;;;5038053;28;20097;-75
2023/10/20 11:51:37;;;;;;;18.05;7.00;;;18.70;99.90;;;;;;5038035;28;20028;-75
2023/10/20 11:54:03;;;;;;;30.90;8.75;;;18.70;99.90;;;;;;5036940;28;20017;-75
2023/10/20 11:56:29;;;;;;;21.33;7.80;;;18.60;99.90;;;;;;5039205;28;20025;-74
2023/10/20 11:58:55;;;;;;;22.55;7.82;;;18.60;99.90;;;;;;5037381;28;20040;-75
2023/10/20 12:01:20;;;;;;;16.48;6.70;;;18.50;99.90;;;;;;5038853;28;20046;-74
2023/10/20 12:03:46;;;;;;;20.15;7.45;;;18.40;99.90;;;;;;5037673;28;20484;-75
2023/10/20 12:06:12;;;;;;;20.23;7.18;;;18.40;99.90;;;;;;5036026;28;20058;-75
2023/10/20 12:08:37;;;;;;;26.05;8.23;;;18.30;99.90;;;;;;5040332;28;20020;-74
2023/10/20 12:11:03;;;;;;;21.88;8.15;;;18.20;99.90;;;;;;5037960;28;20433;-75
2023/10/20 12:13:29;;;;;;;29.08;9.35;;;18.20;99.90;;;;;;5051418;27;20025;-75
2023/10/20 12:15:55;;;;;;;29.52;10.15;;;18.10;99.90;;;;;;5036892;28;20396;-75
2023/10/20 12:18:20;;;;;;;31.23;10.15;;;18.10;99.90;;;;;;5040495;28;20025;-75
2023/10/20 12:20:47;;;;;;;24.80;9.70;;;18.00;99.90;;;;;;5037099;28;20033;-75
2023/10/20 12:23:13;;;;;;;28.42;10.38;;;18.00;99.90;;;;;;5041824;28;20109;-75
2023/10/20 12:25:38;;;;;;;26.38;9.98;;;18.00;99.90;;;;;;5031225;28;20457;-75
2023/10/20 12:28:06;;;;;;;28.67;9.48;;;18.00;99.90;;;;;;5045219;28;20060;-75
2023/10/20 12:30:32;;;;;;;22.85;7.85;;;18.00;99.90;;;;;;5032404;28;20442;-75
2023/10/20 12:32:59;;;;;;;31.80;8.95;;;18.10;99.90;;;;;;5035086;28;20025;-75
2023/10/20 12:35:25;;;;;;;20.85;8.32;;;18.10;99.90;;;;;;5034900;28;20049;-75
2023/10/20 12:37:51;;;;;;;30.10;8.75;;;18.10;99.90;;;;;;5035980;28;20085;-76
2023/10/20 12:40:16;;;;;;;26.00;6.97;;;18.10;99.90;;;;;;5037212;28;20434;-76
2023/10/20 12:42:43;;;;;;;19.50;7.72;;;18.10;99.90;;;;;;5042484;28;20078;-75
2023/10/20 12:45:09;;;;;;;20.80;7.88;;;18.00;99.90;;;;;;5049425;28;20074;-76
2023/10/20 12:47:38;;;;;;;20.45;7.50;;;18.10;99.90;;;;;;5035077;28;20025;-76
2023/10/20 12:50:06;;;;;;;19.98;7.30;;;18.10;99.90;;;;;;5031960;28;20033;-75
2023/10/20 12:52:32;;;;;;;20.17;7.03;;;18.10;99.90;;;;;;5042540;28;20483;-75
2023/10/20 12:54:57;;;;;;;22.60;8.20;;;18.20;99.90;;;;;;5044038;28;20070;-75
2023/10/20 12:57:23;;;;;;;19.55;7.85;;;18.20;99.90;;;;;;5034958;28;20067;-75
2023/10/20 12:59:49;;;;;;;24.08;7.85;;;18.10;99.90;;;;;;5048365;28;20029;-75
2023/10/20 13:02:14;;;;;;;21.83;7.50;;;18.10;99.90;;;;;;5049396;28;20021;-75
2023/10/20 13:04:40;;;;;;;21.70;7.65;;;18.20;99.90;;;;;;5047896;28;20033;-75
2023/10/20 13:07:06;;;;;;;21.30;8.43;;;18.20;99.90;;;;;;5029412;28;20602;-76
2023/10/20 13:09:32;;;;;;;21.40;8.25;;;18.20;99.90;;;;;;5040066;28;20018;-75
2023/10/20 13:11:57;;;;;;;30.63;8.30;;;18.20;99.90;;;;;;5045064;28;20026;-75
2023/10/20 13:14:23;;;;;;;20.45;6.90;;;18.20;99.90;;;;;;5022011;28;20091;-75
2023/10/20 13:16:49;;;;;;;29.63;8.52;;;18.20;99.90;;;;;;5040082;28;20021;-75
2023/10/20 13:19:15;;;;;;;20.65;7.47;;;18.20;99.90;;;;;;5035140;28;20036;-75